sensor_id;sensor_type;location;lat;lon;timestamp;P1;durP1;ratioP1;P2;durP2;ratioP2
22939;SDS011;11636;52.086;5.090;2023-11-22T00:01:10;17.77;;;11.20;;
22939;SDS011;11636;52.086;5.090;2023-11-22T00:03:37;17.77;;;11.00;;
22939;SDS011;11636;52.086;5.090;2023-11-22T00:06:12;18.73;;;11.75;;
22939;SDS011;11636;52.086;5.090;2023-11-22T00:08:38;17.95;;;10.65;;
22939;SDS011;11636;52.086;5.090;2023-11-22T00:11:12;17.52;;;10.43;;
22939;SDS011;11636;52.086;5.090;2023-11-22T00:13:40;18.05;;;11.35;;
22939;SDS011;11636;52.086;5.090;2023-11-22T00:16:20;16.33;;;10.90;;
22939;SDS011;11636;52.086;5.090;2023-11-22T00:18:47;17.48;;;11.38;;
22939;SDS011;11636;52.086;5.090;2023-11-22T00:21:21;16.65;;;10.88;;
22939;SDS011;11636;52.086;5.090;2023-11-22T00:23:47;18.90;;;11.25;;
22939;SDS011;11636;52.086;5.090;2023-11-22T00:26:21;19.92;;;10.90;;
22939;SDS011;11636;52.086;5.090;2023-11-22T00:28:54;15.82;;;10.55;;
22939;SDS011;11636;52.086;5.090;2023-11-22T00:31:20;20.27;;;11.93;;
22939;SDS011;11636;52.086;5.090;2023-11-22T00:33:47;16.13;;;10.82;;
22939;SDS011;11636;52.086;5.090;2023-11-22T00:36:21;17.45;;;11.57;;
22939;SDS011;11636;52.086;5.090;2023-11-22T00:38:47;17.63;;;11.20;;
22939;SDS011;11636;52.086;5.090;2023-11-22T00:41:21;18.02;;;11.35;;
22939;SDS011;11636;52.086;5.090;2023-11-22T00:43:47;17.40;;;10.52;;
22939;SDS011;11636;52.086;5.090;2023-11-22T00:46:21;18.48;;;11.38;;
22939;SDS011;11636;52.086;5.090;2023-11-22T00:48:47;16.65;;;11.57;;
22939;SDS011;11636;52.086;5.090;2023-11-22T00:51:21;16.95;;;11.15;;
22939;SDS011;11636;52.086;5.090;2023-11-22T00:53:48;19.20;;;11.27;;
22939;SDS011;11636;52.086;5.090;2023-11-22T00:56:23;16.13;;;11.07;;
22939;SDS011;11636;52.086;5.090;2023-11-22T00:58:49;18.13;;;10.40;;
22939;SDS011;11636;52.086;5.090;2023-11-22T01:01:23;17.38;;;10.70;;
22939;SDS011;11636;52.086;5.090;2023-11-22T01:03:49;17.02;;;11.48;;
22939;SDS011;11636;52.086;5.090;2023-11-22T01:06:23;17.63;;;11.32;;
22939;SDS011;11636;52.086;5.090;2023-11-22T01:08:50;17.80;;;11.82;;
22939;SDS011;11636;52.086;5.090;2023-11-22T01:11:24;15.05;;;10.80;;
22939;SDS011;11636;52.086;5.090;2023-11-22T01:13:50;17.77;;;10.82;;
22939;SDS011;11636;52.086;5.090;2023-11-22T01:16:25;16.17;;;10.68;;
22939;SDS011;11636;52.086;5.090;2023-11-22T01:18:51;16.55;;;10.50;;
22939;SDS011;11636;52.086;5.090;2023-11-22T01:21:25;17.13;;;10.77;;
22939;SDS011;11636;52.086;5.090;2023-11-22T01:23:51;17.13;;;11.15;;
22939;SDS011;11636;52.086;5.090;2023-11-22T01:26:25;19.20;;;11.00;;
22939;SDS011;11636;52.086;5.090;2023-11-22T01:28:52;17.92;;;11.23;;
22939;SDS011;11636;52.086;5.090;2023-11-22T01:31:25;15.32;;;10.15;;
22939;SDS011;11636;52.086;5.090;2023-11-22T01:33:53;18.10;;;11.25;;
22939;SDS011;11636;52.086;5.090;2023-11-22T01:36:27;16.73;;;10.52;;
22939;SDS011;11636;52.086;5.090;2023-11-22T01:38:54;21.33;;;11.75;;
22939;SDS011;11636;52.086;5.090;2023-11-22T01:41:22;17.45;;;11.00;;
22939;SDS011;11636;52.086;5.090;2023-11-22T01:43:56;17.65;;;11.45;;
22939;SDS011;11636;52.086;5.090;2023-11-22T01:46:31;17.63;;;11.02;;
22939;SDS011;11636;52.086;5.090;2023-11-22T01:49:06;17.35;;;11.07;;
22939;SDS011;11636;52.086;5.090;2023-11-22T01:51:33;18.27;;;11.25;;
22939;SDS011;11636;52.086;5.090;2023-11-22T01:54:09;18.05;;;11.63;;
22939;SDS011;11636;52.086;5.090;2023-11-22T01:56:37;18.92;;;11.80;;
22939;SDS011;11636;52.086;5.090;2023-11-22T01:59:11;20.83;;;12.32;;
22939;SDS011;11636;52.086;5.090;2023-11-22T02:01:39;19.52;;;12.13;;
22939;SDS011;11636;52.086;5.090;2023-11-22T02:04:13;19.92;;;11.80;;
22939;SDS011;11636;52.086;5.090;2023-11-22T02:06:40;19.30;;;12.40;;
22939;SDS011;11636;52.086;5.090;2023-11-22T02:09:14;20.25;;;12.45;;
22939;SDS011;11636;52.086;5.090;2023-11-22T02:11:48;18.70;;;11.73;;
22939;SDS011;11636;52.086;5.090;2023-11-22T02:14:28;20.88;;;11.77;;
22939;SDS011;11636;52.086;5.090;2023-11-22T02:16:55;22.33;;;12.50;;
22939;SDS011;11636;52.086;5.090;2023-11-22T02:19:31;22.67;;;12.63;;
22939;SDS011;11636;52.086;5.090;2023-11-22T02:21:58;19.02;;;11.90;;
22939;SDS011;11636;52.086;5.090;2023-11-22T02:24:32;19.65;;;12.70;;
22939;SDS011;11636;52.086;5.090;2023-11-22T02:27:00;20.40;;;11.80;;
22939;SDS011;11636;52.086;5.090;2023-11-22T02:29:34;20.35;;;12.38;;
22939;SDS011;11636;52.086;5.090;2023-11-22T02:32:01;19.15;;;12.43;;
22939;SDS011;11636;52.086;5.090;2023-11-22T02:34:34;21.08;;;12.73;;
22939;SDS011;11636;52.086;5.090;2023-11-22T02:37:01;18.90;;;12.27;;
22939;SDS011;11636;52.086;5.090;2023-11-22T02:39:41;20.95;;;12.45;;
22939;SDS011;11636;52.086;5.090;2023-11-22T02:42:20;20.83;;;12.70;;
22939;SDS011;11636;52.086;5.090;2023-11-22T02:44:54;21.33;;;12.75;;
22939;SDS011;11636;52.086;5.090;2023-11-22T02:47:21;19.92;;;13.32;;
22939;SDS011;11636;52.086;5.090;2023-11-22T02:49:54;21.30;;;13.48;;
22939;SDS011;11636;52.086;5.090;2023-11-22T02:52:21;24.38;;;13.85;;
22939;SDS011;11636;52.086;5.090;2023-11-22T02:54:50;21.10;;;13.13;;
22939;SDS011;11636;52.086;5.090;2023-11-22T02:57:23;19.98;;;13.32;;
22939;SDS011;11636;52.086;5.090;2023-11-22T02:59:50;21.23;;;14.15;;
22939;SDS011;11636;52.086;5.090;2023-11-22T03:02:23;22.88;;;14.00;;
22939;SDS011;11636;52.086;5.090;2023-11-22T03:04:50;23.45;;;13.77;;
22939;SDS011;11636;52.086;5.090;2023-11-22T03:07:23;22.15;;;13.98;;
22939;SDS011;11636;52.086;5.090;2023-11-22T03:09:51;22.85;;;14.32;;
22939;SDS011;11636;52.086;5.090;2023-11-22T03:12:26;23.40;;;14.02;;
22939;SDS011;11636;52.086;5.090;2023-11-22T03:14:53;21.50;;;14.00;;
22939;SDS011;11636;52.086;5.090;2023-11-22T03:17:31;21.60;;;13.60;;
22939;SDS011;11636;52.086;5.090;2023-11-22T03:19:59;25.27;;;14.70;;
22939;SDS011;11636;52.086;5.090;2023-11-22T03:22:33;22.35;;;14.23;;
22939;SDS011;11636;52.086;5.090;2023-11-22T03:25:02;22.85;;;14.10;;
22939;SDS011;11636;52.086;5.090;2023-11-22T03:27:37;22.65;;;14.20;;
22939;SDS011;11636;52.086;5.090;2023-11-22T03:30:04;24.10;;;14.57;;
22939;SDS011;11636;52.086;5.090;2023-11-22T03:32:38;20.90;;;13.75;;
22939;SDS011;11636;52.086;5.090;2023-11-22T03:35:06;26.92;;;14.55;;
22939;SDS011;11636;52.086;5.090;2023-11-22T03:37:40;23.50;;;13.98;;
22939;SDS011;11636;52.086;5.090;2023-11-22T03:40:07;19.70;;;13.07;;
22939;SDS011;11636;52.086;5.090;2023-11-22T03:42:42;23.23;;;14.82;;
22939;SDS011;11636;52.086;5.090;2023-11-22T03:45:09;24.58;;;14.95;;
22939;SDS011;11636;52.086;5.090;2023-11-22T03:47:43;24.20;;;14.18;;
22939;SDS011;11636;52.086;5.090;2023-11-22T03:50:10;25.27;;;15.30;;
22939;SDS011;11636;52.086;5.090;2023-11-22T03:52:43;21.20;;;13.73;;
22939;SDS011;11636;52.086;5.090;2023-11-22T03:55:10;25.35;;;15.50;;
22939;SDS011;11636;52.086;5.090;2023-11-22T03:57:43;22.38;;;14.30;;
22939;SDS011;11636;52.086;5.090;2023-11-22T04:00:10;23.45;;;15.20;;
22939;SDS011;11636;52.086;5.090;2023-11-22T04:02:38;23.27;;;15.52;;
22939;SDS011;11636;52.086;5.090;2023-11-22T04:05:12;23.23;;;15.20;;
22939;SDS011;11636;52.086;5.090;2023-11-22T04:07:39;20.80;;;14.02;;
22939;SDS011;11636;52.086;5.090;2023-11-22T04:10:06;24.33;;;14.93;;
22939;SDS011;11636;52.086;5.090;2023-11-22T04:12:40;24.85;;;14.57;;
22939;SDS011;11636;52.086;5.090;2023-11-22T04:15:13;23.17;;;14.65;;
22939;SDS011;11636;52.086;5.090;2023-11-22T04:17:40;25.27;;;14.85;;
22939;SDS011;11636;52.086;5.090;2023-11-22T04:20:14;23.42;;;14.63;;
22939;SDS011;11636;52.086;5.090;2023-11-22T04:22:42;23.02;;;13.77;;
22939;SDS011;11636;52.086;5.090;2023-11-22T04:25:20;20.92;;;12.98;;
22939;SDS011;11636;52.086;5.090;2023-11-22T04:27:47;21.58;;;13.35;;
22939;SDS011;11636;52.086;5.090;2023-11-22T04:30:20;19.80;;;12.82;;
22939;SDS011;11636;52.086;5.090;2023-11-22T04:32:47;21.33;;;13.00;;
22939;SDS011;11636;52.086;5.090;2023-11-22T04:35:21;19.88;;;12.80;;
22939;SDS011;11636;52.086;5.090;2023-11-22T04:37:48;20.13;;;12.75;;
22939;SDS011;11636;52.086;5.090;2023-11-22T04:40:22;20.75;;;12.90;;
22939;SDS011;11636;52.086;5.090;2023-11-22T04:42:49;21.17;;;13.30;;
22939;SDS011;11636;52.086;5.090;2023-11-22T04:45:16;22.75;;;13.55;;
22939;SDS011;11636;52.086;5.090;2023-11-22T04:47:50;22.33;;;14.25;;
22939;SDS011;11636;52.086;5.090;2023-11-22T04:50:17;23.23;;;13.70;;
22939;SDS011;11636;52.086;5.090;2023-11-22T04:52:51;22.15;;;13.90;;
22939;SDS011;11636;52.086;5.090;2023-11-22T04:55:18;22.83;;;13.90;;
22939;SDS011;11636;52.086;5.090;2023-11-22T04:58:01;23.13;;;14.18;;
22939;SDS011;11636;52.086;5.090;2023-11-22T05:00:29;23.45;;;14.60;;
22939;SDS011;11636;52.086;5.090;2023-11-22T05:03:02;22.95;;;14.43;;
22939;SDS011;11636;52.086;5.090;2023-11-22T05:05:29;21.17;;;13.90;;
22939;SDS011;11636;52.086;5.090;2023-11-22T05:08:02;21.52;;;14.20;;
22939;SDS011;11636;52.086;5.090;2023-11-22T05:10:29;22.33;;;13.90;;
22939;SDS011;11636;52.086;5.090;2023-11-22T05:13:02;23.52;;;14.73;;
22939;SDS011;11636;52.086;5.090;2023-11-22T05:15:35;22.50;;;14.02;;
22939;SDS011;11636;52.086;5.090;2023-11-22T05:18:09;19.25;;;13.57;;
22939;SDS011;11636;52.086;5.090;2023-11-22T05:20:36;22.27;;;13.30;;
22939;SDS011;11636;52.086;5.090;2023-11-22T05:23:10;24.48;;;14.27;;
22939;SDS011;11636;52.086;5.090;2023-11-22T05:25:39;19.55;;;12.88;;
22939;SDS011;11636;52.086;5.090;2023-11-22T05:28:13;22.98;;;13.30;;
22939;SDS011;11636;52.086;5.090;2023-11-22T05:30:40;21.17;;;13.10;;
22939;SDS011;11636;52.086;5.090;2023-11-22T05:33:13;22.05;;;13.63;;
22939;SDS011;11636;52.086;5.090;2023-11-22T05:35:40;23.67;;;13.38;;
22939;SDS011;11636;52.086;5.090;2023-11-22T05:38:14;21.88;;;13.30;;
22939;SDS011;11636;52.086;5.090;2023-11-22T05:40:41;22.23;;;13.65;;
22939;SDS011;11636;52.086;5.090;2023-11-22T05:43:15;22.85;;;14.15;;
22939;SDS011;11636;52.086;5.090;2023-11-22T05:45:42;22.17;;;13.60;;
22939;SDS011;11636;52.086;5.090;2023-11-22T05:48:15;23.67;;;13.95;;
22939;SDS011;11636;52.086;5.090;2023-11-22T05:50:42;21.08;;;13.15;;
22939;SDS011;11636;52.086;5.090;2023-11-22T05:53:15;22.67;;;13.77;;
22939;SDS011;11636;52.086;5.090;2023-11-22T05:55:48;20.60;;;13.07;;
22939;SDS011;11636;52.086;5.090;2023-11-22T05:58:21;22.08;;;12.75;;
22939;SDS011;11636;52.086;5.090;2023-11-22T06:00:48;22.17;;;14.15;;
22939;SDS011;11636;52.086;5.090;2023-11-22T06:03:21;22.02;;;13.75;;
22939;SDS011;11636;52.086;5.090;2023-11-22T06:05:48;20.15;;;12.90;;
22939;SDS011;11636;52.086;5.090;2023-11-22T06:08:21;22.75;;;13.85;;
22939;SDS011;11636;52.086;5.090;2023-11-22T06:10:48;20.80;;;13.32;;
22939;SDS011;11636;52.086;5.090;2023-11-22T06:13:21;23.73;;;13.88;;
22939;SDS011;11636;52.086;5.090;2023-11-22T06:15:54;21.38;;;13.27;;
22939;SDS011;11636;52.086;5.090;2023-11-22T06:18:22;24.20;;;14.00;;
22939;SDS011;11636;52.086;5.090;2023-11-22T06:21:01;21.95;;;12.98;;
22939;SDS011;11636;52.086;5.090;2023-11-22T06:23:29;22.15;;;13.50;;
22939;SDS011;11636;52.086;5.090;2023-11-22T06:26:02;22.95;;;13.25;;
22939;SDS011;11636;52.086;5.090;2023-11-22T06:28:29;22.77;;;13.50;;
22939;SDS011;11636;52.086;5.090;2023-11-22T06:31:02;20.40;;;12.88;;
22939;SDS011;11636;52.086;5.090;2023-11-22T06:33:29;24.60;;;13.82;;
22939;SDS011;11636;52.086;5.090;2023-11-22T06:36:03;23.17;;;13.73;;
22939;SDS011;11636;52.086;5.090;2023-11-22T06:38:30;22.27;;;14.07;;
22939;SDS011;11636;52.086;5.090;2023-11-22T06:41:03;22.27;;;14.15;;
22939;SDS011;11636;52.086;5.090;2023-11-22T06:43:30;22.50;;;14.00;;
22939;SDS011;11636;52.086;5.090;2023-11-22T06:46:03;22.67;;;14.88;;
22939;SDS011;11636;52.086;5.090;2023-11-22T06:48:32;21.40;;;14.00;;
22939;SDS011;11636;52.086;5.090;2023-11-22T06:51:05;27.80;;;15.15;;
22939;SDS011;11636;52.086;5.090;2023-11-22T06:53:33;25.25;;;15.18;;
22939;SDS011;11636;52.086;5.090;2023-11-22T06:56:06;22.88;;;14.15;;
22939;SDS011;11636;52.086;5.090;2023-11-22T06:58:33;23.65;;;14.25;;
22939;SDS011;11636;52.086;5.090;2023-11-22T07:01:07;20.90;;;13.35;;
22939;SDS011;11636;52.086;5.090;2023-11-22T07:03:38;22.77;;;14.38;;
22939;SDS011;11636;52.086;5.090;2023-11-22T07:06:13;21.23;;;14.20;;
22939;SDS011;11636;52.086;5.090;2023-11-22T07:08:41;24.65;;;13.82;;
22939;SDS011;11636;52.086;5.090;2023-11-22T07:11:10;24.73;;;14.45;;
22939;SDS011;11636;52.086;5.090;2023-11-22T07:13:43;24.40;;;14.82;;
22939;SDS011;11636;52.086;5.090;2023-11-22T07:16:10;24.08;;;14.57;;
22939;SDS011;11636;52.086;5.090;2023-11-22T07:18:43;24.23;;;14.85;;
22939;SDS011;11636;52.086;5.090;2023-11-22T07:21:11;23.90;;;14.23;;
22939;SDS011;11636;52.086;5.090;2023-11-22T07:23:44;25.85;;;14.52;;
22939;SDS011;11636;52.086;5.090;2023-11-22T07:26:11;25.08;;;14.82;;
22939;SDS011;11636;52.086;5.090;2023-11-22T07:28:46;26.17;;;15.18;;
22939;SDS011;11636;52.086;5.090;2023-11-22T07:31:13;26.48;;;14.77;;
22939;SDS011;11636;52.086;5.090;2023-11-22T07:33:47;23.55;;;14.07;;
22939;SDS011;11636;52.086;5.090;2023-11-22T07:36:14;25.45;;;14.13;;
22939;SDS011;11636;52.086;5.090;2023-11-22T07:38:48;26.65;;;14.45;;
22939;SDS011;11636;52.086;5.090;2023-11-22T07:41:15;24.80;;;14.73;;
22939;SDS011;11636;52.086;5.090;2023-11-22T07:43:48;23.67;;;15.38;;
22939;SDS011;11636;52.086;5.090;2023-11-22T07:46:16;26.13;;;15.60;;
22939;SDS011;11636;52.086;5.090;2023-11-22T07:48:43;23.73;;;14.10;;
22939;SDS011;11636;52.086;5.090;2023-11-22T07:51:19;24.92;;;15.38;;
22939;SDS011;11636;52.086;5.090;2023-11-22T07:53:53;23.17;;;15.20;;
22939;SDS011;11636;52.086;5.090;2023-11-22T07:56:21;23.10;;;14.35;;
22939;SDS011;11636;52.086;5.090;2023-11-22T07:58:48;26.35;;;15.60;;
22939;SDS011;11636;52.086;5.090;2023-11-22T08:01:22;26.85;;;16.13;;
22939;SDS011;11636;52.086;5.090;2023-11-22T08:03:49;25.25;;;15.05;;
22939;SDS011;11636;52.086;5.090;2023-11-22T08:06:18;26.60;;;15.60;;
22939;SDS011;11636;52.086;5.090;2023-11-22T08:08:51;24.23;;;15.75;;
22939;SDS011;11636;52.086;5.090;2023-11-22T08:11:25;27.10;;;16.25;;
22939;SDS011;11636;52.086;5.090;2023-11-22T08:13:54;24.27;;;15.40;;
22939;SDS011;11636;52.086;5.090;2023-11-22T08:16:31;27.67;;;16.58;;
22939;SDS011;11636;52.086;5.090;2023-11-22T08:19:04;26.15;;;16.48;;
22939;SDS011;11636;52.086;5.090;2023-11-22T08:21:40;27.80;;;16.63;;
22939;SDS011;11636;52.086;5.090;2023-11-22T08:24:07;24.77;;;15.82;;
22939;SDS011;11636;52.086;5.090;2023-11-22T08:26:40;29.45;;;17.08;;
22939;SDS011;11636;52.086;5.090;2023-11-22T08:29:07;25.15;;;15.65;;
22939;SDS011;11636;52.086;5.090;2023-11-22T08:31:40;27.52;;;17.00;;
22939;SDS011;11636;52.086;5.090;2023-11-22T08:34:08;26.25;;;16.55;;
22939;SDS011;11636;52.086;5.090;2023-11-22T08:36:41;28.65;;;17.02;;
22939;SDS011;11636;52.086;5.090;2023-11-22T08:39:08;27.70;;;16.50;;
22939;SDS011;11636;52.086;5.090;2023-11-22T08:41:35;26.50;;;17.30;;
22939;SDS011;11636;52.086;5.090;2023-11-22T08:44:08;28.05;;;16.23;;
22939;SDS011;11636;52.086;5.090;2023-11-22T08:46:36;24.48;;;16.92;;
22939;SDS011;11636;52.086;5.090;2023-11-22T08:49:09;26.80;;;15.75;;
22939;SDS011;11636;52.086;5.090;2023-11-22T08:51:37;26.80;;;16.20;;
22939;SDS011;11636;52.086;5.090;2023-11-22T08:54:10;26.70;;;16.20;;
22939;SDS011;11636;52.086;5.090;2023-11-22T08:56:37;24.20;;;15.30;;
22939;SDS011;11636;52.086;5.090;2023-11-22T08:59:12;24.90;;;16.23;;
22939;SDS011;11636;52.086;5.090;2023-11-22T09:01:39;27.25;;;16.73;;
22939;SDS011;11636;52.086;5.090;2023-11-22T09:04:13;26.35;;;16.17;;
22939;SDS011;11636;52.086;5.090;2023-11-22T09:06:41;24.85;;;15.98;;
22939;SDS011;11636;52.086;5.090;2023-11-22T09:09:14;26.15;;;15.77;;
22939;SDS011;11636;52.086;5.090;2023-11-22T09:11:42;25.10;;;16.17;;
22939;SDS011;11636;52.086;5.090;2023-11-22T09:14:15;27.92;;;16.48;;
22939;SDS011;11636;52.086;5.090;2023-11-22T09:16:51;25.00;;;15.95;;
22939;SDS011;11636;52.086;5.090;2023-11-22T09:19:27;24.38;;;15.18;;
22939;SDS011;11636;52.086;5.090;2023-11-22T09:21:54;26.85;;;15.45;;
22939;SDS011;11636;52.086;5.090;2023-11-22T09:24:27;23.63;;;15.07;;
22939;SDS011;11636;52.086;5.090;2023-11-22T09:26:54;24.70;;;15.13;;
22939;SDS011;11636;52.086;5.090;2023-11-22T09:29:27;24.17;;;14.65;;
22939;SDS011;11636;52.086;5.090;2023-11-22T09:31:54;21.90;;;13.88;;
22939;SDS011;11636;52.086;5.090;2023-11-22T09:34:28;22.73;;;14.07;;
22939;SDS011;11636;52.086;5.090;2023-11-22T09:36:55;25.02;;;14.70;;
22939;SDS011;11636;52.086;5.090;2023-11-22T09:39:29;25.35;;;14.85;;
22939;SDS011;11636;52.086;5.090;2023-11-22T09:41:56;20.80;;;14.02;;
22939;SDS011;11636;52.086;5.090;2023-11-22T09:44:23;21.45;;;13.95;;
22939;SDS011;11636;52.086;5.090;2023-11-22T09:46:56;21.70;;;14.18;;
22939;SDS011;11636;52.086;5.090;2023-11-22T09:49:24;21.80;;;13.82;;
22939;SDS011;11636;52.086;5.090;2023-11-22T09:52:03;21.00;;;13.18;;
22939;SDS011;11636;52.086;5.090;2023-11-22T09:54:31;22.08;;;13.57;;
22939;SDS011;11636;52.086;5.090;2023-11-22T09:57:06;24.25;;;14.63;;
22939;SDS011;11636;52.086;5.090;2023-11-22T09:59:37;20.27;;;13.25;;
22939;SDS011;11636;52.086;5.090;2023-11-22T10:02:13;20.60;;;12.55;;
22939;SDS011;11636;52.086;5.090;2023-11-22T10:04:39;21.20;;;13.52;;
22939;SDS011;11636;52.086;5.090;2023-11-22T10:07:14;20.75;;;13.50;;
22939;SDS011;11636;52.086;5.090;2023-11-22T10:09:41;19.88;;;13.25;;
22939;SDS011;11636;52.086;5.090;2023-11-22T10:12:14;20.45;;;12.35;;
22939;SDS011;11636;52.086;5.090;2023-11-22T10:14:47;19.88;;;13.15;;
22939;SDS011;11636;52.086;5.090;2023-11-22T10:17:20;21.48;;;13.38;;
22939;SDS011;11636;52.086;5.090;2023-11-22T10:19:48;21.25;;;13.18;;
22939;SDS011;11636;52.086;5.090;2023-11-22T10:22:25;21.40;;;13.65;;
22939;SDS011;11636;52.086;5.090;2023-11-22T10:24:52;21.15;;;13.55;;
22939;SDS011;11636;52.086;5.090;2023-11-22T10:27:27;19.60;;;12.85;;
22939;SDS011;11636;52.086;5.090;2023-11-22T10:29:54;20.85;;;13.52;;
22939;SDS011;11636;52.086;5.090;2023-11-22T10:32:21;19.00;;;13.02;;
22939;SDS011;11636;52.086;5.090;2023-11-22T10:34:55;21.52;;;13.45;;
22939;SDS011;11636;52.086;5.090;2023-11-22T10:37:35;22.92;;;12.40;;
22939;SDS011;11636;52.086;5.090;2023-11-22T10:40:02;23.40;;;14.20;;
22939;SDS011;11636;52.086;5.090;2023-11-22T10:42:33;21.52;;;13.57;;
22939;SDS011;11636;52.086;5.090;2023-11-22T10:45:07;21.42;;;13.18;;
22939;SDS011;11636;52.086;5.090;2023-11-22T10:47:38;23.17;;;13.60;;
22939;SDS011;11636;52.086;5.090;2023-11-22T10:50:14;22.13;;;13.40;;
22939;SDS011;11636;52.086;5.090;2023-11-22T10:52:41;19.73;;;13.43;;
22939;SDS011;11636;52.086;5.090;2023-11-22T10:55:17;21.02;;;13.50;;
22939;SDS011;11636;52.086;5.090;2023-11-22T10:57:46;21.10;;;13.35;;
22939;SDS011;11636;52.086;5.090;2023-11-22T11:00:23;21.08;;;14.13;;
22939;SDS011;11636;52.086;5.090;2023-11-22T11:03:00;20.92;;;14.48;;
22939;SDS011;11636;52.086;5.090;2023-11-22T11:05:38;23.20;;;13.77;;
22939;SDS011;11636;52.086;5.090;2023-11-22T11:08:14;19.08;;;12.50;;
22939;SDS011;11636;52.086;5.090;2023-11-22T11:10:53;20.92;;;13.25;;
22939;SDS011;11636;52.086;5.090;2023-11-22T11:13:24;20.30;;;13.25;;
22939;SDS011;11636;52.086;5.090;2023-11-22T11:15:59;20.70;;;13.27;;
22939;SDS011;11636;52.086;5.090;2023-11-22T11:18:26;21.20;;;12.73;;
22939;SDS011;11636;52.086;5.090;2023-11-22T11:21:03;23.58;;;11.73;;
22939;SDS011;11636;52.086;5.090;2023-11-22T11:23:34;19.33;;;12.60;;
22939;SDS011;11636;52.086;5.090;2023-11-22T11:26:09;18.48;;;12.48;;
22939;SDS011;11636;52.086;5.090;2023-11-22T11:28:51;23.33;;;14.25;;
22939;SDS011;11636;52.086;5.090;2023-11-22T11:31:25;21.10;;;13.88;;
22939;SDS011;11636;52.086;5.090;2023-11-22T11:33:59;20.80;;;13.90;;
22939;SDS011;11636;52.086;5.090;2023-11-22T11:36:33;21.60;;;13.60;;
22939;SDS011;11636;52.086;5.090;2023-11-22T11:39:06;21.80;;;14.63;;
22939;SDS011;11636;52.086;5.090;2023-11-22T11:41:47;24.25;;;14.55;;
22939;SDS011;11636;52.086;5.090;2023-11-22T11:44:20;22.20;;;13.90;;
22939;SDS011;11636;52.086;5.090;2023-11-22T11:46:47;21.88;;;14.68;;
22939;SDS011;11636;52.086;5.090;2023-11-22T11:49:20;21.45;;;14.52;;
22939;SDS011;11636;52.086;5.090;2023-11-22T11:51:55;22.73;;;13.77;;
22939;SDS011;11636;52.086;5.090;2023-11-22T11:54:21;21.05;;;13.38;;
22939;SDS011;11636;52.086;5.090;2023-11-22T11:56:58;22.33;;;14.35;;
22939;SDS011;11636;52.086;5.090;2023-11-22T11:59:32;22.80;;;13.90;;
22939;SDS011;11636;52.086;5.090;2023-11-22T12:02:01;21.88;;;13.90;;
22939;SDS011;11636;52.086;5.090;2023-11-22T12:04:37;22.60;;;14.80;;
22939;SDS011;11636;52.086;5.090;2023-11-22T12:07:07;22.13;;;14.55;;
22939;SDS011;11636;52.086;5.090;2023-11-22T12:09:41;24.55;;;15.27;;
22939;SDS011;11636;52.086;5.090;2023-11-22T12:12:07;23.80;;;14.10;;
22939;SDS011;11636;52.086;5.090;2023-11-22T12:14:41;25.55;;;15.02;;
22939;SDS011;11636;52.086;5.090;2023-11-22T12:17:08;20.75;;;13.32;;
22939;SDS011;11636;52.086;5.090;2023-11-22T12:19:43;21.80;;;13.82;;
22939;SDS011;11636;52.086;5.090;2023-11-22T12:22:10;20.52;;;12.95;;
22939;SDS011;11636;52.086;5.090;2023-11-22T12:24:45;22.35;;;13.68;;
22939;SDS011;11636;52.086;5.090;2023-11-22T12:27:12;20.67;;;14.23;;
22939;SDS011;11636;52.086;5.090;2023-11-22T12:29:45;21.20;;;13.65;;
22939;SDS011;11636;52.086;5.090;2023-11-22T12:32:13;20.33;;;13.73;;
22939;SDS011;11636;52.086;5.090;2023-11-22T12:34:50;22.45;;;14.52;;
22939;SDS011;11636;52.086;5.090;2023-11-22T12:37:22;23.73;;;14.80;;
22939;SDS011;11636;52.086;5.090;2023-11-22T12:39:57;20.73;;;13.63;;
22939;SDS011;11636;52.086;5.090;2023-11-22T12:42:23;20.40;;;13.65;;
22939;SDS011;11636;52.086;5.090;2023-11-22T12:44:58;21.08;;;14.20;;
22939;SDS011;11636;52.086;5.090;2023-11-22T12:47:34;21.77;;;14.05;;
22939;SDS011;11636;52.086;5.090;2023-11-22T12:50:08;24.15;;;15.93;;
22939;SDS011;11636;52.086;5.090;2023-11-22T12:53:07;27.30;;;16.15;;
22939;SDS011;11636;52.086;5.090;2023-11-22T12:55:52;26.08;;;15.73;;
22939;SDS011;11636;52.086;5.090;2023-11-22T12:58:24;20.90;;;14.10;;
22939;SDS011;11636;52.086;5.090;2023-11-22T13:00:58;24.73;;;15.93;;
22939;SDS011;11636;52.086;5.090;2023-11-22T13:03:27;24.23;;;15.98;;
22939;SDS011;11636;52.086;5.090;2023-11-22T13:06:01;26.25;;;15.38;;
22939;SDS011;11636;52.086;5.090;2023-11-22T13:08:29;24.63;;;16.25;;
22939;SDS011;11636;52.086;5.090;2023-11-22T13:11:02;24.95;;;16.20;;
22939;SDS011;11636;52.086;5.090;2023-11-22T13:13:29;26.25;;;16.98;;
22939;SDS011;11636;52.086;5.090;2023-11-22T13:16:03;25.15;;;16.52;;
22939;SDS011;11636;52.086;5.090;2023-11-22T13:18:31;26.98;;;16.48;;
22939;SDS011;11636;52.086;5.090;2023-11-22T13:21:05;26.30;;;15.90;;
22939;SDS011;11636;52.086;5.090;2023-11-22T13:23:32;28.60;;;16.88;;
22939;SDS011;11636;52.086;5.090;2023-11-22T13:26:06;27.67;;;16.58;;
22939;SDS011;11636;52.086;5.090;2023-11-22T13:28:42;27.90;;;17.00;;
22939;SDS011;11636;52.086;5.090;2023-11-22T13:31:15;33.08;;;18.48;;
22939;SDS011;11636;52.086;5.090;2023-11-22T13:33:48;31.45;;;17.70;;
22939;SDS011;11636;52.086;5.090;2023-11-22T13:36:15;28.20;;;17.25;;
22939;SDS011;11636;52.086;5.090;2023-11-22T13:38:48;26.80;;;16.50;;
22939;SDS011;11636;52.086;5.090;2023-11-22T13:41:21;28.67;;;17.00;;
22939;SDS011;11636;52.086;5.090;2023-11-22T13:43:50;30.45;;;17.70;;
22939;SDS011;11636;52.086;5.090;2023-11-22T13:46:24;27.33;;;16.67;;
22939;SDS011;11636;52.086;5.090;2023-11-22T13:48:52;27.73;;;16.90;;
22939;SDS011;11636;52.086;5.090;2023-11-22T13:51:26;25.08;;;15.57;;
22939;SDS011;11636;52.086;5.090;2023-11-22T13:53:54;24.90;;;15.35;;
22939;SDS011;11636;52.086;5.090;2023-11-22T13:56:27;23.15;;;14.13;;
22939;SDS011;11636;52.086;5.090;2023-11-22T13:58:54;21.13;;;13.13;;
22939;SDS011;11636;52.086;5.090;2023-11-22T14:01:27;21.40;;;13.73;;
22939;SDS011;11636;52.086;5.090;2023-11-22T14:03:54;21.83;;;12.98;;
22939;SDS011;11636;52.086;5.090;2023-11-22T14:06:29;22.33;;;13.07;;
22939;SDS011;11636;52.086;5.090;2023-11-22T14:08:57;19.30;;;13.23;;
22939;SDS011;11636;52.086;5.090;2023-11-22T14:11:30;19.83;;;13.25;;
22939;SDS011;11636;52.086;5.090;2023-11-22T14:13:58;19.65;;;12.95;;
22939;SDS011;11636;52.086;5.090;2023-11-22T14:16:27;19.48;;;12.90;;
22939;SDS011;11636;52.086;5.090;2023-11-22T14:19:00;20.85;;;13.90;;
22939;SDS011;11636;52.086;5.090;2023-11-22T14:21:27;18.40;;;11.98;;
22939;SDS011;11636;52.086;5.090;2023-11-22T14:24:01;21.55;;;12.65;;
22939;SDS011;11636;52.086;5.090;2023-11-22T14:26:28;18.40;;;12.95;;
22939;SDS011;11636;52.086;5.090;2023-11-22T14:29:01;19.00;;;13.25;;
22939;SDS011;11636;52.086;5.090;2023-11-22T14:31:28;19.40;;;13.27;;
22939;SDS011;11636;52.086;5.090;2023-11-22T14:34:02;20.25;;;13.70;;
22939;SDS011;11636;52.086;5.090;2023-11-22T14:36:31;20.10;;;13.82;;
22939;SDS011;11636;52.086;5.090;2023-11-22T14:39:05;20.35;;;13.48;;
22939;SDS011;11636;52.086;5.090;2023-11-22T14:41:33;18.90;;;13.15;;
22939;SDS011;11636;52.086;5.090;2023-11-22T14:44:07;18.55;;;12.90;;